createdAt,value
2018-04-09T00:01:14.167Z,8.90
2018-04-09T00:03:41.714Z,9.23
2018-04-09T00:06:09.286Z,9.00
2018-04-09T00:08:36.842Z,9.50
2018-04-09T00:11:04.418Z,9.47
2018-04-09T00:13:31.964Z,10.40
2018-04-09T00:15:59.526Z,9.57
2018-04-09T00:18:27.070Z,10.93
2018-04-09T00:20:54.647Z,11.10
2018-04-09T00:23:22.219Z,10.47
2018-04-09T00:25:49.782Z,10.70
2018-04-09T00:28:17.347Z,10.37
2018-04-09T00:30:44.902Z,10.50
2018-04-09T00:33:12.491Z,10.70
2018-04-09T00:35:40.807Z,11.80
2018-04-09T00:38:08.377Z,10.57
2018-04-09T00:40:35.922Z,10.10
2018-04-09T00:43:03.496Z,10.67
2018-04-09T00:45:31.043Z,10.17
2018-04-09T00:47:58.635Z,10.13
2018-04-09T00:50:26.187Z,10.90
2018-04-09T00:52:53.754Z,10.30
2018-04-09T00:55:21.308Z,10.80
2018-04-09T00:57:48.858Z,10.57
2018-04-09T01:00:16.423Z,10.27
2018-04-09T01:02:43.963Z,9.93
2018-04-09T01:05:11.536Z,10.40
2018-04-09T01:07:39.079Z,10.30
2018-04-09T01:10:06.647Z,9.53
2018-04-09T01:12:34.203Z,10.97
2018-04-09T01:15:01.772Z,10.97
2018-04-09T01:17:29.316Z,11.07
2018-04-09T01:19:56.885Z,10.17
2018-04-09T01:22:24.444Z,11.53
2018-04-09T01:24:52.211Z,11.37
2018-04-09T01:27:19.758Z,11.27
2018-04-09T01:29:47.326Z,11.50
2018-04-09T01:32:14.953Z,12.20
2018-04-09T01:34:42.510Z,11.63
2018-04-09T01:37:10.088Z,11.47
2018-04-09T01:40:01.634Z,11.50
2018-04-09T01:42:29.203Z,12.23
2018-04-09T01:44:56.761Z,13.43
2018-04-09T01:47:24.310Z,11.90
2018-04-09T01:49:51.880Z,11.10
2018-04-09T01:52:19.460Z,13.20
2018-04-09T01:54:47.816Z,12.50
2018-04-09T01:57:15.368Z,12.57
2018-04-09T01:59:42.968Z,12.73
2018-04-09T02:02:11.285Z,13.57
2018-04-09T02:04:38.858Z,12.17
2018-04-09T02:07:06.449Z,11.53
2018-04-09T02:12:28.532Z,11.77
2018-04-09T02:14:56.111Z,11.77
2018-04-09T02:17:23.662Z,12.20
2018-04-09T02:19:51.228Z,12.00
2018-04-09T02:22:18.775Z,12.90
2018-04-09T02:24:46.317Z,13.23
2018-04-09T02:27:14.650Z,14.30
2018-04-09T02:29:42.968Z,13.07
2018-04-09T02:32:11.301Z,12.10
2018-04-09T02:34:38.855Z,12.67
2018-04-09T02:37:06.422Z,12.60
2018-04-09T02:39:33.971Z,13.40
2018-04-09T02:42:01.553Z,12.97
2018-04-09T02:44:29.105Z,11.57
2018-04-09T02:46:58.066Z,13.10
2018-04-09T02:49:27.879Z,12.33
2018-04-09T02:51:55.853Z,12.63
2018-04-09T02:54:24.368Z,12.70
2018-04-09T02:56:52.430Z,12.20
2018-04-09T02:59:21.145Z,11.47
2018-04-09T03:01:49.742Z,11.67
2018-04-09T03:04:17.494Z,12.20
2018-04-09T03:06:46.194Z,11.27
2018-04-09T03:09:16.534Z,13.10
2018-04-09T03:11:45.262Z,12.30
2018-04-09T03:14:12.823Z,12.90
2018-04-09T03:16:41.429Z,12.80
2018-04-09T03:19:09.750Z,12.70
2018-04-09T03:21:37.317Z,11.13
2018-04-09T03:24:04.867Z,12.47
2018-04-09T03:26:32.443Z,13.20
2018-04-09T03:28:59.980Z,12.57
2018-04-09T03:31:27.546Z,12.87
2018-04-09T03:33:55.141Z,12.53
2018-04-09T03:36:22.702Z,13.47
2018-04-09T03:38:50.247Z,13.70
2018-04-09T03:41:17.831Z,13.10
2018-04-09T03:43:48.406Z,12.90
2018-04-09T03:46:15.950Z,13.77
2018-04-09T03:48:43.519Z,12.67
2018-04-09T03:51:11.074Z,12.63
2018-04-09T03:53:38.635Z,12.97
2018-04-09T03:56:06.194Z,12.03
2018-04-09T03:58:33.774Z,12.30
2018-04-09T04:01:01.325Z,12.80
2018-04-09T04:03:28.870Z,12.30
2018-04-09T04:05:56.434Z,12.33
2018-04-09T04:08:23.980Z,11.97
2018-04-09T04:10:51.556Z,13.30
2018-04-09T04:13:19.100Z,12.70
2018-04-09T04:15:58.561Z,11.90
2018-04-09T04:18:37.958Z,12.77
2018-04-09T04:21:18.129Z,12.93
2018-04-09T04:23:45.689Z,12.63
2018-04-09T04:26:13.248Z,12.53
2018-04-09T04:28:40.836Z,14.30
2018-04-09T04:31:08.402Z,14.50
2018-04-09T04:33:35.968Z,12.43
2018-04-09T04:36:03.547Z,13.27
2018-04-09T04:38:31.141Z,14.40
2018-04-09T04:40:59.462Z,14.10
2018-04-09T04:43:27.083Z,14.30
2018-04-09T04:45:54.633Z,12.70
2018-04-09T04:48:22.979Z,13.40
2018-04-09T04:50:50.559Z,14.53
2018-04-09T04:53:18.126Z,12.87
2018-04-09T04:55:46.468Z,14.40
2018-04-09T04:58:14.019Z,13.87
2018-04-09T05:00:41.574Z,13.80
2018-04-09T05:03:09.134Z,13.20
2018-04-09T05:05:36.721Z,13.80
2018-04-09T05:08:04.313Z,13.70
2018-04-09T05:10:32.643Z,14.27
2018-04-09T05:13:00.214Z,13.80
2018-04-09T05:15:27.800Z,13.40
2018-04-09T05:17:56.146Z,14.83
2018-04-09T05:20:23.764Z,13.90
2018-04-09T05:22:51.633Z,13.77
2018-04-09T05:25:19.204Z,15.03
2018-04-09T05:27:46.800Z,13.30
2018-04-09T05:30:14.344Z,14.10
2018-04-09T05:32:41.921Z,15.90
2018-04-09T05:35:09.515Z,14.40
2018-04-09T05:37:37.080Z,16.00
2018-04-09T05:40:04.660Z,14.70
2018-04-09T05:42:32.247Z,14.73
2018-04-09T05:44:59.795Z,15.30
2018-04-09T05:47:28.128Z,14.20
2018-04-09T05:49:55.699Z,14.13
2018-04-09T05:52:23.256Z,15.47
2018-04-09T05:55:12.246Z,16.03
2018-04-09T05:57:39.802Z,15.47
2018-04-09T06:00:07.371Z,15.03
2018-04-09T06:02:34.943Z,15.03
2018-04-09T06:05:02.549Z,14.93
2018-04-09T06:07:30.104Z,14.20
2018-04-09T06:12:50.603Z,15.17
2018-04-09T06:15:18.837Z,17.37
2018-04-09T06:17:46.399Z,15.20
2018-04-09T06:20:13.969Z,16.10
2018-04-09T06:22:41.553Z,15.30
2018-04-09T06:25:09.871Z,16.40
2018-04-09T06:27:37.451Z,16.80
2018-04-09T06:30:05.037Z,18.27
2018-04-09T06:32:32.592Z,17.07
2018-04-09T06:35:00.181Z,15.33
2018-04-09T06:37:28.574Z,17.30
2018-04-09T06:39:56.126Z,17.10
2018-04-09T06:42:23.711Z,16.40
2018-04-09T06:44:51.319Z,15.77
2018-04-09T06:47:18.896Z,15.80
2018-04-09T06:52:39.729Z,15.97
2018-04-09T06:55:07.313Z,15.97
2018-04-09T06:57:40.887Z,16.33
2018-04-09T07:00:08.496Z,16.90
2018-04-09T07:02:36.066Z,14.90
2018-04-09T07:05:03.647Z,16.53
2018-04-09T07:07:32.067Z,16.20
2018-04-09T07:09:59.643Z,16.33
2018-04-09T07:12:27.193Z,16.67
2018-04-09T07:14:54.775Z,17.57
2018-04-09T07:17:22.344Z,17.97
2018-04-09T07:19:49.907Z,16.87
2018-04-09T07:22:17.513Z,16.20
2018-04-09T07:24:45.079Z,16.97
2018-04-09T07:27:12.632Z,16.33
2018-04-09T07:29:43.659Z,17.40
2018-04-09T07:32:11.999Z,17.63
2018-04-09T07:34:39.555Z,17.00
2018-04-09T07:37:07.130Z,16.30
2018-04-09T07:39:34.716Z,16.47
2018-04-09T07:42:08.279Z,16.73
2018-04-09T07:44:35.830Z,16.30
2018-04-09T07:47:03.384Z,15.80
2018-04-09T07:49:30.955Z,15.53
2018-04-09T07:51:58.519Z,16.17
2018-04-09T07:54:26.077Z,17.00
2018-04-09T07:56:53.669Z,17.70
2018-04-09T07:59:22.001Z,16.67
2018-04-09T08:01:49.556Z,18.30
2018-04-09T08:04:17.136Z,18.17
2018-04-09T08:06:44.703Z,16.47
2018-04-09T08:09:12.272Z,18.60
2018-04-09T08:11:40.636Z,17.00
2018-04-09T08:14:08.199Z,15.60
2018-04-09T08:16:52.683Z,17.90
2018-04-09T08:19:20.241Z,16.67
2018-04-09T08:21:47.810Z,17.20
2018-04-09T08:24:15.403Z,16.37
2018-04-09T08:26:42.981Z,17.47
2018-04-09T08:29:10.530Z,15.90
2018-04-09T08:31:38.111Z,16.50
2018-04-09T08:34:05.663Z,16.87
2018-04-09T08:36:33.220Z,16.57
2018-04-09T08:39:00.800Z,17.17
2018-04-09T08:41:29.114Z,16.63
2018-04-09T08:43:56.682Z,14.43
2018-04-09T08:46:24.622Z,16.80
2018-04-09T08:48:52.943Z,15.30
2018-04-09T08:51:20.592Z,15.20
2018-04-09T08:53:48.174Z,15.40
2018-04-09T08:59:08.661Z,15.43
2018-04-09T09:01:36.272Z,15.90
2018-04-09T09:04:04.616Z,15.87
2018-04-09T09:06:32.196Z,16.43
2018-04-09T09:11:52.948Z,14.47
2018-04-09T09:14:20.512Z,15.63
2018-04-09T09:16:48.827Z,14.43
2018-04-09T09:19:16.412Z,16.33
2018-04-09T09:21:43.981Z,14.90
2018-04-09T09:24:12.311Z,14.80
2018-04-09T09:26:39.890Z,13.20
2018-04-09T09:29:07.534Z,14.50
2018-04-09T09:31:35.100Z,14.23
2018-04-09T09:34:02.679Z,14.47
2018-04-09T09:36:30.232Z,13.97
2018-04-09T09:38:57.792Z,11.73
2018-04-09T09:41:25.367Z,13.50
2018-04-09T09:43:52.919Z,11.90
2018-04-09T09:46:20.468Z,13.70
2018-04-09T09:48:48.071Z,14.57
2018-04-09T09:51:16.395Z,14.20
2018-04-09T09:53:43.974Z,14.93
2018-04-09T09:56:11.567Z,14.13
2018-04-09T09:58:40.074Z,13.40
2018-04-09T10:01:09.451Z,13.63
2018-04-09T10:03:37.805Z,14.97
2018-04-09T10:06:06.828Z,15.93
2018-04-09T10:11:29.154Z,12.17
2018-04-09T10:13:56.716Z,13.50
2018-04-09T10:16:24.272Z,14.33
2018-04-09T10:18:52.633Z,14.93
2018-04-09T10:21:20.203Z,14.87
2018-04-09T10:23:47.772Z,13.30
2018-04-09T10:26:15.355Z,18.40
2018-04-09T10:28:43.685Z,16.03
2018-04-09T10:31:11.256Z,15.80
2018-04-09T10:33:38.840Z,15.50
2018-04-09T10:36:06.424Z,17.53
2018-04-09T10:38:33.971Z,15.97
2018-04-09T10:41:01.571Z,15.07
2018-04-09T10:43:29.116Z,16.07
2018-04-09T10:45:56.691Z,16.30
2018-04-09T10:48:24.283Z,18.07
2018-04-09T10:50:51.842Z,15.90
2018-04-09T10:53:19.408Z,16.20
2018-04-09T10:55:47.012Z,17.37
2018-04-09T10:58:14.579Z,18.40
2018-04-09T11:00:42.139Z,18.97
2018-04-09T11:03:09.727Z,16.70
2018-04-09T11:05:37.318Z,15.97
2018-04-09T11:08:05.635Z,17.20
2018-04-09T11:10:33.222Z,15.90
2018-04-09T11:13:00.939Z,16.33
2018-04-09T11:15:28.510Z,15.73
2018-04-09T11:18:02.480Z,15.67
2018-04-09T11:20:30.026Z,14.70
2018-04-09T11:22:57.584Z,15.80
2018-04-09T11:25:25.203Z,15.00
2018-04-09T11:27:52.768Z,16.77
2018-04-09T11:30:20.401Z,16.80
2018-04-09T11:32:48.779Z,16.80
2018-04-09T11:35:17.115Z,15.17
2018-04-09T11:37:48.369Z,15.83
2018-04-09T11:40:15.921Z,15.13
2018-04-09T11:42:43.504Z,14.90
2018-04-09T11:45:11.095Z,14.53
2018-04-09T11:47:38.642Z,15.30
2018-04-09T11:50:06.960Z,15.17
2018-04-09T11:52:34.530Z,13.43
2018-04-09T11:55:02.073Z,14.60
2018-04-09T11:57:29.667Z,14.10
2018-04-09T11:59:57.246Z,13.70
2018-04-09T12:02:24.820Z,13.47
2018-04-09T12:04:52.506Z,11.63
2018-04-09T12:07:20.171Z,13.60
2018-04-09T12:09:47.937Z,12.33
2018-04-09T12:12:15.497Z,11.43
2018-04-09T12:14:43.072Z,10.77
2018-04-09T12:17:10.638Z,10.13
2018-04-09T12:19:38.193Z,9.50
2018-04-09T12:22:05.838Z,6.87
2018-04-09T12:24:33.418Z,7.70
2018-04-09T12:27:01.002Z,7.37
2018-04-09T12:29:28.585Z,7.30
2018-04-09T12:31:56.913Z,7.33
2018-04-09T12:34:24.459Z,6.60
2018-04-09T12:36:52.033Z,8.10
2018-04-09T12:39:19.582Z,7.87
2018-04-09T12:41:47.182Z,7.83
2018-04-09T12:44:14.769Z,9.43
2018-04-09T12:46:42.384Z,10.53
2018-04-09T12:49:09.966Z,11.03
2018-04-09T12:51:37.542Z,10.93
2018-04-09T12:54:05.886Z,11.90
2018-04-09T12:56:33.429Z,11.43
2018-04-09T12:59:01.015Z,11.40
2018-04-09T13:01:29.380Z,10.73
2018-04-09T13:03:56.937Z,9.77
2018-04-09T13:06:24.509Z,9.43
2018-04-09T13:08:52.068Z,10.97
2018-04-09T13:11:19.654Z,10.90
2018-04-09T13:13:47.984Z,10.20
2018-04-09T13:16:15.562Z,10.00
2018-04-09T13:18:43.117Z,9.50
2018-04-09T13:21:11.449Z,9.23
2018-04-09T13:23:38.993Z,9.70
2018-04-09T13:26:06.565Z,9.30
2018-04-09T13:28:34.130Z,8.17
2018-04-09T13:31:01.670Z,8.43
2018-04-09T13:33:29.236Z,8.30
2018-04-09T13:35:56.861Z,8.20
2018-04-09T13:38:24.397Z,7.80
2018-04-09T13:40:51.977Z,9.87
2018-04-09T13:43:19.536Z,11.97
2018-04-09T13:45:47.848Z,12.67
2018-04-09T13:48:15.404Z,12.30
2018-04-09T13:50:42.974Z,10.93
2018-04-09T13:53:10.527Z,13.00
2018-04-09T13:55:38.144Z,12.63
2018-04-09T13:58:06.478Z,13.87
2018-04-09T14:00:34.033Z,11.87
2018-04-09T14:03:01.611Z,12.67
2018-04-09T14:05:29.207Z,13.00
2018-04-09T14:07:57.535Z,11.47
2018-04-09T14:10:25.080Z,12.50
2018-04-09T14:12:52.672Z,12.20
2018-04-09T14:15:21.326Z,12.23
2018-04-09T14:17:48.935Z,14.87
2018-04-09T14:20:16.508Z,13.20
2018-04-09T14:22:44.086Z,12.90
2018-04-09T14:25:11.649Z,12.97
2018-04-09T14:27:39.994Z,11.33
2018-04-09T14:30:08.461Z,11.70
2018-04-09T14:32:36.013Z,12.30
2018-04-09T14:35:03.582Z,11.90
2018-04-09T14:37:31.220Z,12.97
2018-04-09T14:39:58.825Z,11.80
2018-04-09T14:42:26.466Z,12.27
2018-04-09T14:44:54.033Z,12.67
2018-04-09T14:47:21.710Z,11.80
2018-04-09T14:49:50.085Z,11.73
2018-04-09T14:52:17.685Z,12.67
2018-04-09T14:54:45.229Z,10.10
2018-04-09T14:57:13.569Z,11.23
2018-04-09T14:59:41.122Z,10.60
2018-04-09T15:02:09.452Z,11.90
2018-04-09T15:04:40.381Z,10.33
2018-04-09T15:07:08.714Z,10.30
2018-04-09T15:09:36.270Z,10.63
2018-04-09T15:12:03.837Z,9.53
2018-04-09T15:14:35.026Z,10.17
2018-04-09T15:17:03.366Z,8.93
2018-04-09T15:19:30.923Z,10.57
2018-04-09T15:21:58.522Z,10.00
2018-04-09T15:24:26.142Z,10.40
2018-04-09T15:26:53.704Z,11.23
2018-04-09T15:29:21.275Z,10.47
2018-04-09T15:31:49.665Z,9.73
2018-04-09T15:34:18.310Z,8.60
2018-04-09T15:36:45.874Z,8.40
2018-04-09T15:39:13.556Z,7.27
2018-04-09T15:41:41.113Z,8.30
2018-04-09T15:44:10.603Z,9.03
2018-04-09T15:46:39.017Z,9.80
2018-04-09T15:49:07.338Z,8.53
2018-04-09T15:51:34.939Z,8.67
2018-04-09T15:54:02.513Z,9.40
2018-04-09T15:56:30.838Z,9.47
2018-04-09T15:59:04.292Z,9.20
2018-04-09T16:01:31.860Z,8.60
2018-04-09T16:04:00.169Z,9.07
2018-04-09T16:06:27.854Z,9.30
2018-04-09T16:08:55.596Z,8.37
2018-04-09T16:11:23.134Z,8.90
2018-04-09T16:13:51.472Z,9.00
2018-04-09T16:16:19.017Z,8.40
2018-04-09T16:18:46.573Z,7.80
2018-04-09T16:21:17.957Z,8.30
2018-04-09T16:23:46.294Z,8.83
2018-04-09T16:26:13.840Z,7.07
2018-04-09T16:28:41.425Z,7.50
2018-04-09T16:31:08.987Z,7.60
2018-04-09T16:33:36.533Z,6.93
2018-04-09T16:36:04.194Z,6.33
2018-04-09T16:38:31.749Z,6.37
2018-04-09T16:41:00.072Z,7.30
2018-04-09T16:43:28.405Z,7.30
2018-04-09T16:45:55.962Z,8.40
2018-04-09T16:48:24.289Z,9.23
2018-04-09T16:50:51.860Z,10.90
2018-04-09T16:53:19.421Z,13.20
2018-04-09T16:55:47.480Z,12.20
2018-04-09T16:58:15.821Z,12.70
2018-04-09T17:00:43.417Z,13.43
2018-04-09T17:03:10.993Z,12.97
2018-04-09T17:05:38.565Z,12.63
2018-04-09T17:08:06.122Z,11.60
2018-04-09T17:10:33.709Z,12.77
2018-04-09T17:13:13.648Z,11.80
2018-04-09T17:15:41.216Z,12.80
2018-04-09T17:18:08.789Z,13.27
2018-04-09T17:20:36.372Z,12.40
2018-04-09T17:23:04.729Z,12.47
2018-04-09T17:25:32.340Z,12.83
2018-04-09T17:28:00.661Z,12.37
2018-04-09T17:30:28.226Z,12.67
2018-04-09T17:32:55.800Z,12.40
2018-04-09T17:35:23.369Z,11.47
2018-04-09T17:37:51.700Z,11.73
2018-04-09T17:40:19.274Z,11.40
2018-04-09T17:42:46.850Z,10.73
2018-04-09T17:45:14.460Z,10.90
2018-04-09T17:47:43.036Z,12.83
2018-04-09T17:50:17.148Z,12.63
2018-04-09T17:52:44.902Z,12.90
2018-04-09T17:55:12.484Z,13.50
2018-04-09T17:57:40.052Z,13.20
2018-04-09T18:00:14.107Z,12.57
2018-04-09T18:02:43.808Z,13.53
2018-04-09T18:05:11.385Z,13.40
2018-04-09T18:07:40.294Z,12.57
2018-04-09T18:10:08.019Z,12.60
2018-04-09T18:12:36.360Z,11.00
2018-04-09T18:15:04.044Z,10.80
2018-04-09T18:17:31.690Z,13.20
2018-04-09T18:20:00.044Z,12.53
2018-04-09T18:22:37.346Z,11.60
2018-04-09T18:25:04.911Z,13.03
2018-04-09T18:27:32.549Z,13.30
2018-04-09T18:30:06.015Z,13.17
2018-04-09T18:32:33.580Z,12.07
2018-04-09T18:35:03.847Z,13.57
2018-04-09T18:37:31.424Z,11.73
2018-04-09T18:40:04.862Z,12.00
2018-04-09T18:42:33.222Z,13.00
2018-04-09T18:45:00.803Z,12.97
2018-04-09T18:47:29.129Z,13.03
2018-04-09T18:50:00.277Z,11.77
2018-04-09T18:52:38.844Z,11.53
2018-04-09T18:55:14.005Z,11.50
2018-04-09T18:57:41.555Z,12.77
2018-04-09T19:00:09.124Z,11.87
2018-04-09T19:02:37.646Z,11.90
2018-04-09T19:05:05.208Z,10.87
2018-04-09T19:07:32.912Z,10.30
2018-04-09T19:10:01.253Z,10.53
2018-04-09T19:12:28.808Z,11.13
2018-04-09T19:14:56.361Z,11.53
2018-04-09T19:17:23.928Z,10.77
2018-04-09T19:19:51.502Z,10.67
2018-04-09T19:22:19.047Z,11.27
2018-04-09T19:24:47.388Z,11.40
2018-04-09T19:27:14.933Z,11.50
2018-04-09T19:29:42.506Z,11.70
2018-04-09T19:32:10.081Z,11.90
2018-04-09T19:34:44.269Z,11.17
2018-04-09T19:51:15.276Z,12.30
2018-04-09T19:53:43.685Z,10.47
2018-04-09T19:56:11.339Z,11.40
2018-04-09T19:58:38.918Z,10.97
2018-04-09T20:01:06.729Z,9.33
2018-04-09T20:03:34.751Z,10.23
2018-04-09T20:06:03.518Z,10.40
2018-04-09T20:08:31.461Z,9.53
2018-04-09T20:10:59.493Z,10.10
2018-04-09T20:13:27.407Z,10.93
2018-04-09T20:15:55.368Z,10.10
2018-04-09T20:18:23.476Z,11.13
2018-04-09T20:20:52.231Z,11.50
2018-04-09T20:23:20.189Z,10.30
2018-04-09T20:25:48.134Z,10.70
2018-04-09T20:28:16.123Z,11.20
2018-04-09T20:30:44.100Z,11.23
2018-04-09T20:33:12.067Z,10.90
2018-04-09T20:35:40.039Z,10.87
2018-04-09T20:38:07.992Z,12.13
2018-04-09T20:40:36.030Z,12.40
2018-04-09T20:43:04.774Z,11.57
2018-04-09T20:45:32.668Z,11.90
2018-04-09T20:48:00.605Z,13.13
2018-04-09T20:50:28.447Z,12.00
2018-04-09T20:52:57.642Z,11.50
2018-04-09T20:55:26.172Z,13.20
2018-04-09T20:57:54.160Z,12.50
2018-04-09T21:00:21.910Z,14.03
2018-04-09T21:02:49.696Z,12.63
2018-04-09T21:05:17.352Z,13.20
2018-04-09T21:07:46.202Z,13.77
2018-04-09T21:10:14.621Z,13.00
2018-04-09T21:12:42.236Z,12.60
2018-04-09T21:15:10.776Z,12.90
2018-04-09T21:17:39.126Z,12.70
2018-04-09T21:20:06.732Z,12.27
2018-04-09T21:22:34.322Z,12.57
2018-04-09T21:25:02.755Z,13.77
2018-04-09T21:27:30.421Z,12.83
2018-04-09T21:29:58.026Z,14.23
2018-04-09T21:32:26.438Z,13.43
2018-04-09T21:34:54.063Z,13.87
2018-04-09T21:37:22.447Z,13.20
2018-04-09T21:39:50.862Z,13.50
2018-04-09T21:42:18.459Z,13.60
2018-04-09T21:44:46.084Z,12.40
2018-04-09T21:47:14.131Z,13.17
2018-04-09T21:49:41.732Z,15.70
2018-04-09T21:52:09.362Z,13.87
2018-04-09T21:54:36.995Z,14.17
2018-04-09T21:57:04.660Z,14.13
2018-04-09T21:59:33.027Z,15.00
2018-04-09T22:02:01.419Z,13.97
2018-04-09T22:04:29.822Z,14.40
2018-04-09T22:06:57.492Z,13.63
2018-04-09T22:09:25.336Z,13.70
2018-04-09T22:11:52.948Z,13.13
2018-04-09T22:14:20.570Z,12.20
2018-04-09T22:16:48.203Z,14.00
2018-04-09T22:19:16.562Z,12.37
2018-04-09T22:21:44.153Z,12.60
2018-04-09T22:24:11.767Z,12.60
2018-04-09T22:26:39.386Z,13.30
2018-04-09T22:29:08.658Z,13.20
2018-04-09T22:31:37.069Z,13.53
2018-04-09T22:34:04.667Z,12.03
2018-04-09T22:36:33.051Z,12.80
2018-04-09T22:39:00.710Z,13.00
2018-04-09T22:41:28.310Z,12.43
2018-04-09T22:43:55.909Z,13.47
2018-04-09T22:46:23.538Z,13.27
2018-04-09T22:48:51.132Z,13.20
2018-04-09T22:51:18.725Z,14.10
2018-04-09T22:53:46.349Z,13.70
2018-04-09T22:56:13.945Z,12.70
2018-04-09T22:58:41.543Z,12.97
2018-04-09T23:01:09.267Z,12.77
2018-04-09T23:03:36.857Z,12.70
2018-04-09T23:06:04.456Z,13.50
2018-04-09T23:08:32.087Z,12.83
2018-04-09T23:10:59.691Z,12.47
2018-04-09T23:13:27.295Z,12.70
2018-04-09T23:15:55.707Z,13.30
2018-04-09T23:18:23.296Z,12.10
2018-04-09T23:20:50.886Z,12.27
2018-04-09T23:23:19.272Z,12.40
2018-04-09T23:25:47.637Z,13.10
2018-04-09T23:28:16.003Z,13.37
2018-04-09T23:30:43.674Z,12.87
2018-04-09T23:33:11.296Z,12.20
2018-04-09T23:35:38.899Z,12.30
2018-04-09T23:38:07.302Z,12.20
2018-04-09T23:40:34.912Z,12.70
2018-04-09T23:43:02.542Z,13.03
2018-04-09T23:45:30.176Z,12.43
2018-04-09T23:47:57.781Z,12.00
2018-04-09T23:50:25.370Z,12.87
2018-04-09T23:52:52.990Z,13.10
2018-04-09T23:55:20.593Z,11.30
2018-04-09T23:57:48.195Z,12.30
